Time;durP1;ratioP1;P1;durP2;ratioP2;P2;SDS_P1;SDS_P2;PMS_P1;PMS_P2;Temp;Humidity;BMP_temperature;BMP_pressure;BME280_temperature;BME280_humidity;BME280_pressure;Samples;Min_cycle;Max_cycle;Signal;HPM_P1;HPM_P2
2024/03/31 00:01:04;;;;;;;40.60;6.20;;;;;;;;;;103762;1292;545062;-71
2024/03/31 00:04:35;;;;;;;46.70;6.70;;;;;;;;;;103831;1291;544999;-74
2024/03/31 00:08:13;;;;;;;40.60;6.20;;;;;;;;;;103696;1292;545600;-73
2024/03/31 00:11:46;;;;;;;44.10;6.40;;;;;;;;;;104548;1281;544783;-68
2024/03/31 00:15:28;;;;;;;41.60;5.50;;;;;;;;;;103798;1292;544950;-69
2024/03/31 00:19:06;;;;;;;40.10;5.70;;;;;;;;;;103720;1292;545114;-74
2024/03/31 00:22:43;;;;;;;42.40;6.30;;;;;;;;;;104344;1285;544999;-71
2024/03/31 00:26:20;;;;;;;36.70;5.50;;;;;;;;;;103758;1290;544701;-73
2024/03/31 00:29:57;;;;;;;33.00;5.80;;;;;;;;;;103722;1289;545193;-70
2024/03/31 00:33:35;;;;;;;39.40;6.20;;;;;;;;;;103704;1289;545731;-71
2024/03/31 00:37:13;;;;;;;31.90;5.50;;;;;;;;;;103777;1291;545127;-69
2024/03/31 00:40:50;;;;;;;34.60;4.70;;;;;;;;;;103792;1292;544933;-70
2024/03/31 00:44:30;;;;;;;36.90;5.40;;;;;;;;;;103766;1289;545720;-73
2024/03/31 00:48:06;;;;;;;39.30;5.40;;;;;;;;;;103471;1295;545059;-71
2024/03/31 00:51:43;;;;;;;33.50;5.40;;;;;;;;;;103729;1289;544757;-70
2024/03/31 00:55:20;;;;;;;36.60;5.70;;;;;;;;;;103712;1291;545491;-74
2024/03/31 00:58:58;;;;;;;36.20;4.90;;;;;;;;;;103894;1288;545217;-72
2024/03/31 01:02:34;;;;;;;32.90;5.10;;;;;;;;;;103744;1288;544784;-73
2024/03/31 01:06:19;;;;;;;36.60;5.30;;;;;;;;;;103481;1298;544812;-72
2024/03/31 01:09:50;;;;;;;34.10;5.10;;;;;;;;;;103573;1292;544774;-73
2024/03/31 01:13:27;;;;;;;40.00;4.90;;;;;;;;;;103704;1292;546319;-72
2024/03/31 01:17:05;;;;;;;31.40;5.70;;;;;;;;;;104008;1288;544943;-72
2024/03/31 01:20:46;;;;;;;36.80;5.20;;;;;;;;;;103846;1289;544727;-71
2024/03/31 01:24:20;;;;;;;31.60;4.60;;;;;;;;;;103739;1291;544782;-71
2024/03/31 01:27:54;;;;;;;29.20;4.50;;;;;;;;;;103818;1292;545212;-72
2024/03/31 01:31:35;;;;;;;28.50;4.40;;;;;;;;;;104085;1288;544850;-71
2024/03/31 01:35:13;;;;;;;28.50;4.80;;;;;;;;;;103879;1288;545033;-71
2024/03/31 01:38:50;;;;;;;39.20;4.70;;;;;;;;;;103831;1292;545119;-72
2024/03/31 01:42:28;;;;;;;33.10;5.30;;;;;;;;;;103692;1289;545228;-71
2024/03/31 01:46:05;;;;;;;33.50;4.80;;;;;;;;;;103788;1289;544919;-71
2024/03/31 01:49:43;;;;;;;32.50;4.90;;;;;;;;;;103830;1302;545949;-72
2024/03/31 01:53:19;;;;;;;32.20;4.60;;;;;;;;;;103949;1289;545028;-70
2024/03/31 01:56:54;;;;;;;36.30;4.40;;;;;;;;;;103790;1289;544966;-69
2024/03/31 02:00:38;;;;;;;43.30;5.60;;;;;;;;;;103893;1289;544768;-70
2024/03/31 02:04:13;;;;;;;26.90;4.50;;;;;;;;;;103742;1289;545095;-71
2024/03/31 02:07:52;;;;;;;27.40;5.10;;;;;;;;;;103903;1289;544745;-71
2024/03/31 02:11:28;;;;;;;29.10;4.90;;;;;;;;;;103775;1305;544959;-70
2024/03/31 02:15:05;;;;;;;30.60;4.70;;;;;;;;;;104668;1279;544771;-71
2024/03/31 02:18:43;;;;;;;29.10;4.70;;;;;;;;;;103798;1291;545421;-71
2024/03/31 02:22:22;;;;;;;29.70;4.90;;;;;;;;;;103811;1289;545565;-71
2024/03/31 02:25:58;;;;;;;28.00;4.80;;;;;;;;;;103791;1291;545467;-72
2024/03/31 02:29:33;;;;;;;28.70;4.90;;;;;;;;;;103926;1289;546230;-71
2024/03/31 02:33:13;;;;;;;27.30;5.40;;;;;;;;;;103962;1301;545734;-72
2024/03/31 02:36:49;;;;;;;27.10;4.60;;;;;;;;;;103870;1296;545355;-71
2024/03/31 02:40:27;;;;;;;30.00;5.20;;;;;;;;;;104100;1289;544854;-71
2024/03/31 02:44:11;;;;;;;31.40;5.20;;;;;;;;;;103750;1292;545277;-71
2024/03/31 02:47:42;;;;;;;28.40;4.10;;;;;;;;;;103698;1290;545107;-70
2024/03/31 02:51:19;;;;;;;29.60;4.60;;;;;;;;;;103746;1289;545040;-72
2024/03/31 02:54:58;;;;;;;24.90;4.50;;;;;;;;;;103845;1292;544863;-72
2024/03/31 02:58:35;;;;;;;28.50;4.80;;;;;;;;;;103820;1292;545096;-71
2024/03/31 03:02:13;;;;;;;25.90;5.20;;;;;;;;;;104547;1285;545267;-71
2024/03/31 03:05:53;;;;;;;32.70;4.70;;;;;;;;;;103736;1291;545168;-71
2024/03/31 03:09:26;;;;;;;33.00;5.40;;;;;;;;;;103760;1289;545237;-70
2024/03/31 03:13:07;;;;;;;30.60;5.60;;;;;;;;;;103787;1290;545834;-71
2024/03/31 03:16:42;;;;;;;31.50;5.10;;;;;;;;;;103703;1294;545132;-71
2024/03/31 03:20:19;;;;;;;29.80;4.30;;;;;;;;;;103815;1289;545033;-72
2024/03/31 03:23:57;;;;;;;25.50;4.20;;;;;;;;;;103620;1292;545016;-73
2024/03/31 03:27:37;;;;;;;27.20;4.50;;;;;;;;;;103830;1291;544792;-72
2024/03/31 03:31:12;;;;;;;34.30;4.40;;;;;;;;;;103787;1289;545469;-71
2024/03/31 03:34:53;;;;;;;27.30;4.80;;;;;;;;;;103778;1289;545662;-72
2024/03/31 03:38:27;;;;;;;31.10;5.10;;;;;;;;;;103656;1291;545589;-71
2024/03/31 03:42:04;;;;;;;39.80;6.10;;;;;;;;;;103540;1297;545047;-71
2024/03/31 03:45:38;;;;;;;43.30;6.50;;;;;;;;;;103884;1296;544820;-72
2024/03/31 03:49:38;;;;;;;35.20;5.60;;;;;;;;;;103817;1293;546395;-72
2024/03/31 03:52:59;;;;;;;35.10;5.60;;;;;;;;;;103759;1291;544782;-72
2024/03/31 03:56:33;;;;;;;36.70;5.30;;;;;;;;;;103813;1290;545420;-71
2024/03/31 04:00:12;;;;;;;34.30;5.70;;;;;;;;;;103589;1293;545580;-72
2024/03/31 04:03:49;;;;;;;32.40;5.80;;;;;;;;;;103478;1292;545451;-72
2024/03/31 04:07:27;;;;;;;32.80;5.70;;;;;;;;;;103789;1291;544960;-71
2024/03/31 04:11:03;;;;;;;30.30;5.30;;;;;;;;;;103890;1288;545363;-71
2024/03/31 04:14:44;;;;;;;31.10;5.60;;;;;;;;;;103747;1291;545491;-73
2024/03/31 04:18:22;;;;;;;36.60;5.60;;;;;;;;;;103791;1289;544744;-72
2024/03/31 04:21:56;;;;;;;35.30;5.70;;;;;;;;;;103781;1292;544930;-71
2024/03/31 04:25:37;;;;;;;34.30;5.90;;;;;;;;;;103650;1291;544991;-72
2024/03/31 04:29:21;;;;;;;;;;;;;;;;;;;;;
2024/03/31 04:32:49;;;;;;;34.60;6.10;;;;;;;;;;103729;1291;545562;-72
2024/03/31 04:36:27;;;;;;;39.20;5.90;;;;;;;;;;103818;1289;544932;-71
2024/03/31 04:40:04;;;;;;;36.00;5.70;;;;;;;;;;103839;1291;545424;-71
2024/03/31 04:43:41;;;;;;;36.40;5.10;;;;;;;;;;103686;1292;544903;-72
2024/03/31 04:47:19;;;;;;;39.60;6.10;;;;;;;;;;103714;1290;545650;-71
2024/03/31 04:51:00;;;;;;;40.20;5.70;;;;;;;;;;103991;1286;545828;-71
2024/03/31 04:54:39;;;;;;;40.20;7.20;;;;;;;;;;103717;1290;545028;-72
2024/03/31 04:58:12;;;;;;;36.70;7.30;;;;;;;;;;103871;1289;544745;-72
2024/03/31 05:01:52;;;;;;;32.40;6.80;;;;;;;;;;103654;1295;545065;-69
2024/03/31 05:05:27;;;;;;;38.50;6.60;;;;;;;;;;103772;1292;545104;-72
2024/03/31 05:09:04;;;;;;;36.20;6.40;;;;;;;;;;103813;1289;545815;-72
2024/03/31 05:12:41;;;;;;;38.20;7.40;;;;;;;;;;103936;1289;545013;-72
2024/03/31 05:16:18;;;;;;;47.40;9.00;;;;;;;;;;103772;1289;545259;-72
2024/03/31 05:19:57;;;;;;;50.50;7.80;;;;;;;;;;103709;1292;545984;-70
2024/03/31 05:23:35;;;;;;;52.10;7.90;;;;;;;;;;103756;1292;544889;-70
2024/03/31 05:27:14;;;;;;;36.70;6.80;;;;;;;;;;103990;1290;545045;-73
2024/03/31 05:30:49;;;;;;;38.00;6.50;;;;;;;;;;103886;1289;544983;-71
2024/03/31 05:34:32;;;;;;;39.50;6.90;;;;;;;;;;103985;1289;544856;-71
2024/03/31 05:38:03;;;;;;;36.00;6.10;;;;;;;;;;103883;1290;544952;-71
2024/03/31 05:41:42;;;;;;;43.20;7.10;;;;;;;;;;103707;1291;544800;-72
2024/03/31 05:45:19;;;;;;;36.30;6.20;;;;;;;;;;103760;1292;545927;-71
2024/03/31 05:48:59;;;;;;;36.60;6.30;;;;;;;;;;103698;1295;545786;-71
2024/03/31 05:52:34;;;;;;;35.80;5.90;;;;;;;;;;103671;1292;544928;-70
2024/03/31 05:56:12;;;;;;;37.80;6.00;;;;;;;;;;103934;1289;545389;-72
2024/03/31 05:59:49;;;;;;;42.40;6.60;;;;;;;;;;103903;1289;544865;-69
2024/03/31 06:03:27;;;;;;;36.20;6.90;;;;;;;;;;103650;1292;544803;-70
2024/03/31 06:07:03;;;;;;;34.40;6.20;;;;;;;;;;103869;1288;544971;-72
2024/03/31 06:10:42;;;;;;;32.40;7.20;;;;;;;;;;104085;1288;545049;-71
2024/03/31 06:14:18;;;;;;;29.80;6.50;;;;;;;;;;103788;1292;545021;-70
2024/03/31 06:17:57;;;;;;;36.10;6.10;;;;;;;;;;103802;1289;545477;-71
2024/03/31 06:21:35;;;;;;;35.10;6.20;;;;;;;;;;103749;1292;544789;-72
2024/03/31 06:25:12;;;;;;;28.30;5.80;;;;;;;;;;103659;1292;544761;-70
2024/03/31 06:28:49;;;;;;;33.20;6.20;;;;;;;;;;103750;1292;545018;-72
2024/03/31 06:32:22;;;;;;;31.60;6.10;;;;;;;;;;103859;1291;544852;-71
2024/03/31 06:36:06;;;;;;;34.30;5.50;;;;;;;;;;103805;1289;544815;-72
2024/03/31 06:39:41;;;;;;;27.30;5.40;;;;;;;;;;104577;1285;544751;-71
2024/03/31 06:43:18;;;;;;;30.40;5.50;;;;;;;;;;103794;1289;545124;-71
2024/03/31 06:46:56;;;;;;;32.00;6.60;;;;;;;;;;103559;1291;545321;-71
2024/03/31 06:50:34;;;;;;;34.30;5.60;;;;;;;;;;103616;1292;545189;-71
2024/03/31 06:54:11;;;;;;;29.20;5.50;;;;;;;;;;103749;1301;545004;-70
2024/03/31 06:57:48;;;;;;;34.00;5.40;;;;;;;;;;103812;1289;544784;-71
2024/03/31 07:01:26;;;;;;;38.40;6.70;;;;;;;;;;103869;1292;545011;-72
2024/03/31 07:05:03;;;;;;;35.90;6.40;;;;;;;;;;103764;1292;545457;-71
2024/03/31 07:08:46;;;;;;;38.70;6.60;;;;;;;;;;103911;1290;545756;-71
2024/03/31 07:12:18;;;;;;;32.50;6.40;;;;;;;;;;103882;1288;545535;-72
2024/03/31 07:15:56;;;;;;;30.30;5.60;;;;;;;;;;103802;1292;544940;-71
2024/03/31 07:19:33;;;;;;;37.90;6.20;;;;;;;;;;103814;1292;545293;-71
2024/03/31 07:23:11;;;;;;;38.70;6.50;;;;;;;;;;103820;1289;544753;-72
2024/03/31 07:26:48;;;;;;;33.50;5.50;;;;;;;;;;103665;1292;544755;-71
2024/03/31 07:30:26;;;;;;;33.20;5.60;;;;;;;;;;103860;1289;545948;-72
2024/03/31 07:34:04;;;;;;;43.00;5.90;;;;;;;;;;103971;1288;545130;-71
2024/03/31 07:37:41;;;;;;;27.70;5.20;;;;;;;;;;103961;1288;544393;-69
2024/03/31 07:41:17;;;;;;;29.10;5.50;;;;;;;;;;103556;1305;544777;-73
2024/03/31 07:44:56;;;;;;;37.10;5.80;;;;;;;;;;103787;1292;545438;-72
2024/03/31 07:48:42;;;;;;;35.00;6.50;;;;;;;;;;103803;1292;544969;-72
2024/03/31 07:52:11;;;;;;;34.40;5.80;;;;;;;;;;103776;1289;544747;-73
2024/03/31 07:55:55;;;;;;;31.80;5.70;;;;;;;;;;103649;1292;546015;-72
2024/03/31 07:59:25;;;;;;;36.60;5.90;;;;;;;;;;104146;1286;544795;-72
2024/03/31 08:03:03;;;;;;;30.40;5.80;;;;;;;;;;103847;1292;545406;-72
2024/03/31 08:06:40;;;;;;;35.10;5.80;;;;;;;;;;103495;1295;544743;-70
2024/03/31 08:10:18;;;;;;;34.40;6.20;;;;;;;;;;104683;1283;545361;-73
2024/03/31 08:13:52;;;;;;;33.90;6.10;;;;;;;;;;104454;1283;544843;-71
2024/03/31 08:17:32;;;;;;;34.20;5.90;;;;;;;;;;103762;1291;545015;-74
2024/03/31 08:21:11;;;;;;;43.70;6.40;;;;;;;;;;103802;1289;545130;-75
2024/03/31 08:24:48;;;;;;;33.60;6.10;;;;;;;;;;103666;1291;545400;-72
2024/03/31 08:28:26;;;;;;;35.00;6.10;;;;;;;;;;103855;1289;545589;-72
2024/03/31 08:32:03;;;;;;;36.20;6.30;;;;;;;;;;103852;1292;545287;-73
2024/03/31 08:35:41;;;;;;;34.50;5.80;;;;;;;;;;103637;1298;544973;-73
2024/03/31 08:39:18;;;;;;;35.40;6.00;;;;;;;;;;103564;1292;545020;-72
2024/03/31 08:42:59;;;;;;;36.10;6.20;;;;;;;;;;103859;1289;544938;-73
2024/03/31 08:46:35;;;;;;;39.70;6.40;;;;;;;;;;103866;1289;544876;-69
2024/03/31 08:50:10;;;;;;;51.40;6.80;;;;;;;;;;103792;1289;544931;-71
2024/03/31 08:53:52;;;;;;;33.20;6.40;;;;;;;;;;103863;1290;545052;-74
2024/03/31 08:57:26;;;;;;;46.90;7.10;;;;;;;;;;103697;1291;545601;-77
2024/03/31 09:01:03;;;;;;;40.30;6.30;;;;;;;;;;104419;1283;545042;-71
2024/03/31 09:04:41;;;;;;;41.00;6.70;;;;;;;;;;103833;1290;545127;-72
2024/03/31 09:08:19;;;;;;;36.60;6.50;;;;;;;;;;103965;1286;546486;-74
2024/03/31 09:11:55;;;;;;;33.20;6.80;;;;;;;;;;103783;1291;544963;-78
2024/03/31 09:15:33;;;;;;;35.00;6.20;;;;;;;;;;103835;1289;544934;-73
2024/03/31 09:19:10;;;;;;;33.30;6.20;;;;;;;;;;103568;1295;545175;-73
2024/03/31 09:22:44;;;;;;;32.20;5.90;;;;;;;;;;103806;1289;545066;-74
2024/03/31 09:26:25;;;;;;;34.10;6.80;;;;;;;;;;103792;1289;544757;-72
2024/03/31 09:30:06;;;;;;;35.60;6.10;;;;;;;;;;103729;1289;544228;-71
2024/03/31 09:33:40;;;;;;;33.40;6.40;;;;;;;;;;104117;1285;545619;-70
2024/03/31 09:37:17;;;;;;;42.40;6.60;;;;;;;;;;103941;1291;544911;-76
2024/03/31 09:40:55;;;;;;;40.30;6.10;;;;;;;;;;103627;1295;544822;-71
2024/03/31 09:44:33;;;;;;;38.00;6.70;;;;;;;;;;104550;1283;545411;-74
2024/03/31 09:48:16;;;;;;;41.20;6.30;;;;;;;;;;104656;1283;544713;-72
2024/03/31 09:51:53;;;;;;;40.60;6.40;;;;;;;;;;104159;1285;545121;-76
2024/03/31 09:55:27;;;;;;;40.10;6.70;;;;;;;;;;103745;1290;544966;-70
2024/03/31 09:59:02;;;;;;;37.00;6.80;;;;;;;;;;103857;1290;545980;-75
2024/03/31 10:03:01;;;;;;;47.60;7.00;;;;;;;;;;103681;1292;545998;-72
2024/03/31 10:06:18;;;;;;;48.60;7.90;;;;;;;;;;103673;1294;545442;-75
2024/03/31 10:09:56;;;;;;;33.40;6.40;;;;;;;;;;103715;1289;545521;-75
2024/03/31 10:13:33;;;;;;;44.00;7.10;;;;;;;;;;103741;1292;544766;-73
2024/03/31 10:17:10;;;;;;;39.60;7.20;;;;;;;;;;103865;1295;544951;-73
2024/03/31 10:20:48;;;;;;;42.80;7.80;;;;;;;;;;104056;1289;545469;-69
2024/03/31 10:24:25;;;;;;;39.10;6.50;;;;;;;;;;103794;1289;545783;-72
2024/03/31 10:28:03;;;;;;;42.50;7.10;;;;;;;;;;103783;1301;545060;-71
2024/03/31 10:31:36;;;;;;;39.70;6.90;;;;;;;;;;104223;1287;545817;-71
2024/03/31 10:35:17;;;;;;;35.80;6.30;;;;;;;;;;103870;1290;544788;-72
2024/03/31 10:38:55;;;;;;;40.70;7.10;;;;;;;;;;103828;1289;545375;-78
2024/03/31 10:42:32;;;;;;;42.10;7.60;;;;;;;;;;103690;1289;545573;-70
2024/03/31 10:46:09;;;;;;;41.60;7.40;;;;;;;;;;103820;1289;544750;-75
2024/03/31 10:49:55;;;;;;;34.80;6.70;;;;;;;;;;103667;1295;544746;-70
2024/03/31 10:53:25;;;;;;;39.00;6.70;;;;;;;;;;105836;1289;545711;-73
2024/03/31 10:57:10;;;;;;;49.60;8.50;;;;;;;;;;103784;1296;546085;-74
2024/03/31 11:00:42;;;;;;;37.80;6.80;;;;;;;;;;103850;1292;545280;-72
2024/03/31 11:04:18;;;;;;;42.50;7.30;;;;;;;;;;103675;1291;544994;-72
2024/03/31 11:07:57;;;;;;;43.80;7.40;;;;;;;;;;104075;1290;544865;-72
2024/03/31 11:11:32;;;;;;;39.20;6.80;;;;;;;;;;103748;1292;544606;-76
2024/03/31 11:15:11;;;;;;;43.40;7.10;;;;;;;;;;103757;1292;545162;-70
2024/03/31 11:18:51;;;;;;;41.20;7.00;;;;;;;;;;103786;1289;546145;-74
2024/03/31 11:22:31;;;;;;;42.00;7.10;;;;;;;;;;103893;1289;546369;-70
2024/03/31 11:26:03;;;;;;;37.10;7.60;;;;;;;;;;103789;1296;544948;-74
2024/03/31 11:29:40;;;;;;;43.80;7.50;;;;;;;;;;103765;1291;545293;-72
2024/03/31 11:33:17;;;;;;;44.00;7.80;;;;;;;;;;103749;1290;544957;-73
2024/03/31 11:36:54;;;;;;;47.30;7.30;;;;;;;;;;103813;1293;546045;-74
2024/03/31 11:40:32;;;;;;;53.40;7.80;;;;;;;;;;103841;1292;544744;-77
2024/03/31 11:44:10;;;;;;;34.80;7.10;;;;;;;;;;103769;1290;546127;-73
2024/03/31 11:47:47;;;;;;;45.70;7.70;;;;;;;;;;103631;1292;544648;-72
2024/03/31 11:51:25;;;;;;;42.90;7.30;;;;;;;;;;103815;1289;545957;-74
2024/03/31 11:55:01;;;;;;;38.60;7.80;;;;;;;;;;103739;1291;544857;-72
2024/03/31 11:58:39;;;;;;;48.30;8.00;;;;;;;;;;103665;1291;545624;-71
2024/03/31 12:02:18;;;;;;;43.60;6.70;;;;;;;;;;104003;1288;545711;-73
2024/03/31 12:05:55;;;;;;;48.10;8.20;;;;;;;;;;103613;1295;544812;-75
2024/03/31 12:09:32;;;;;;;46.70;8.00;;;;;;;;;;103680;1292;544957;-71
2024/03/31 12:13:11;;;;;;;53.60;8.20;;;;;;;;;;104013;1288;544913;-71
2024/03/31 12:16:46;;;;;;;60.50;8.40;;;;;;;;;;103708;1292;544695;-72
2024/03/31 12:20:25;;;;;;;48.90;8.30;;;;;;;;;;103716;1292;544721;-72
2024/03/31 12:24:05;;;;;;;46.10;8.00;;;;;;;;;;103943;1288;544716;-71
2024/03/31 12:27:43;;;;;;;52.80;8.20;;;;;;;;;;103751;1301;544846;-71
2024/03/31 12:31:18;;;;;;;47.30;10.40;;;;;;;;;;103523;1295;544791;-72
2024/03/31 12:34:54;;;;;;;50.70;8.80;;;;;;;;;;104128;1288;545310;-75
2024/03/31 12:38:32;;;;;;;45.50;7.80;;;;;;;;;;103812;1289;544711;-71
2024/03/31 12:42:13;;;;;;;51.30;8.10;;;;;;;;;;103751;1292;545261;-76
2024/03/31 12:45:46;;;;;;;51.90;8.00;;;;;;;;;;103866;1294;545337;-73
2024/03/31 12:49:20;;;;;;;50.20;7.90;;;;;;;;;;105899;1288;544898;-71
2024/03/31 12:53:07;;;;;;;44.70;8.40;;;;;;;;;;103987;1289;544974;-72
2024/03/31 12:56:39;;;;;;;56.20;9.20;;;;;;;;;;105936;1289;545483;-71
2024/03/31 13:00:13;;;;;;;44.40;8.20;;;;;;;;;;104016;1289;544942;-75
2024/03/31 13:03:54;;;;;;;47.60;8.70;;;;;;;;;;103810;1289;545672;-71
2024/03/31 13:07:35;;;;;;;47.70;8.60;;;;;;;;;;104080;1287;544965;-71
2024/03/31 13:11:10;;;;;;;51.10;10.30;;;;;;;;;;103732;1292;545656;-70
2024/03/31 13:14:46;;;;;;;63.30;9.90;;;;;;;;;;103798;1289;544779;-71
2024/03/31 13:18:24;;;;;;;57.80;9.10;;;;;;;;;;103792;1289;544818;-71
2024/03/31 13:22:02;;;;;;;51.00;8.30;;;;;;;;;;103915;1289;546240;-73
2024/03/31 13:25:39;;;;;;;50.90;9.10;;;;;;;;;;103654;1292;545530;-70
2024/03/31 13:29:17;;;;;;;48.30;8.40;;;;;;;;;;103775;1289;544735;-72
2024/03/31 13:32:57;;;;;;;53.60;9.40;;;;;;;;;;103724;1289;544761;-71
2024/03/31 13:36:31;;;;;;;53.50;9.10;;;;;;;;;;103802;1289;544897;-71
2024/03/31 13:40:11;;;;;;;58.30;9.10;;;;;;;;;;104205;1288;545602;-71
2024/03/31 13:43:46;;;;;;;52.80;8.90;;;;;;;;;;103820;1289;545052;-71
2024/03/31 13:47:24;;;;;;;63.20;9.30;;;;;;;;;;103805;1289;545421;-72
2024/03/31 13:51:01;;;;;;;55.50;8.80;;;;;;;;;;103972;1288;544778;-72
2024/03/31 13:54:39;;;;;;;55.80;9.10;;;;;;;;;;103637;1291;545275;-71
2024/03/31 13:58:12;;;;;;;53.80;9.50;;;;;;;;;;103928;1289;544738;-69
2024/03/31 14:01:54;;;;;;;53.00;9.00;;;;;;;;;;104042;1292;544827;-73
2024/03/31 14:05:31;;;;;;;48.60;9.90;;;;;;;;;;104429;1285;545529;-72
2024/03/31 14:09:10;;;;;;;52.00;8.80;;;;;;;;;;103631;1291;545464;-70
2024/03/31 14:12:46;;;;;;;42.00;8.90;;;;;;;;;;103696;1292;544781;-71
2024/03/31 14:16:25;;;;;;;47.20;9.70;;;;;;;;;;103877;1288;545053;-71
2024/03/31 14:20:02;;;;;;;48.90;9.30;;;;;;;;;;104223;1286;545004;-71
2024/03/31 14:23:39;;;;;;;46.30;8.50;;;;;;;;;;103879;1291;545112;-72
2024/03/31 14:27:16;;;;;;;54.40;9.60;;;;;;;;;;103825;1294;544848;-71
2024/03/31 14:30:59;;;;;;;54.70;9.90;;;;;;;;;;103727;1302;545619;-71
2024/03/31 14:34:31;;;;;;;50.60;9.20;;;;;;;;;;103707;1295;545140;-72
2024/03/31 14:38:09;;;;;;;50.00;8.20;;;;;;;;;;104126;1290;544715;-72
2024/03/31 14:41:46;;;;;;;51.70;8.30;;;;;;;;;;103767;1292;545140;-73
2024/03/31 14:45:20;;;;;;;44.30;9.20;;;;;;;;;;103900;1290;544986;-70
2024/03/31 14:49:01;;;;;;;49.10;8.60;;;;;;;;;;103745;1288;544817;-70
2024/03/31 14:52:39;;;;;;;46.80;9.60;;;;;;;;;;103715;1294;545442;-72
2024/03/31 14:56:16;;;;;;;53.90;9.20;;;;;;;;;;103509;1292;545022;-73
2024/03/31 14:59:54;;;;;;;52.00;8.90;;;;;;;;;;103759;1292;544938;-72
2024/03/31 15:03:32;;;;;;;55.50;9.70;;;;;;;;;;103840;1292;544980;-74
2024/03/31 15:07:09;;;;;;;52.00;9.60;;;;;;;;;;104484;1286;545117;-71
2024/03/31 15:10:42;;;;;;;56.40;9.00;;;;;;;;;;103818;1290;545126;-70
2024/03/31 15:14:24;;;;;;;48.90;8.70;;;;;;;;;;103699;1291;544795;-73
2024/03/31 15:18:00;;;;;;;54.00;8.90;;;;;;;;;;103910;1292;544964;-70
2024/03/31 15:21:38;;;;;;;61.70;10.40;;;;;;;;;;103615;1294;544910;-73
2024/03/31 15:25:15;;;;;;;50.00;9.10;;;;;;;;;;103779;1289;545268;-71
2024/03/31 15:28:53;;;;;;;53.70;9.10;;;;;;;;;;103863;1289;544994;-69
2024/03/31 15:32:31;;;;;;;50.90;9.20;;;;;;;;;;103775;1289;545546;-71
2024/03/31 15:36:11;;;;;;;60.50;9.20;;;;;;;;;;103686;1290;546560;-69
2024/03/31 15:39:45;;;;;;;53.60;8.40;;;;;;;;;;103866;1295;545057;-70
2024/03/31 15:43:23;;;;;;;45.40;7.90;;;;;;;;;;103832;1289;544926;-77
2024/03/31 15:46:56;;;;;;;48.70;8.70;;;;;;;;;;103977;1292;545027;-70
2024/03/31 15:50:39;;;;;;;47.60;8.20;;;;;;;;;;103756;1291;546057;-76
2024/03/31 15:54:15;;;;;;;43.70;7.90;;;;;;;;;;104070;1288;545558;-71
2024/03/31 15:57:53;;;;;;;44.10;9.00;;;;;;;;;;103658;1293;544929;-71
2024/03/31 16:01:30;;;;;;;47.30;8.60;;;;;;;;;;104136;1287;545644;-71
2024/03/31 16:05:08;;;;;;;49.00;8.60;;;;;;;;;;103731;1291;544812;-75
2024/03/31 16:08:45;;;;;;;49.10;8.80;;;;;;;;;;103804;1292;545985;-70
2024/03/31 16:12:22;;;;;;;43.90;7.80;;;;;;;;;;103603;1292;545362;-71
2024/03/31 16:15:58;;;;;;;40.60;7.70;;;;;;;;;;103687;1291;545440;-71
2024/03/31 16:19:45;;;;;;;50.60;8.70;;;;;;;;;;103782;1289;545717;-70
2024/03/31 16:23:15;;;;;;;51.80;8.30;;;;;;;;;;103644;1292;544947;-73
2024/03/31 16:26:53;;;;;;;41.80;8.80;;;;;;;;;;103730;1290;545048;-73
2024/03/31 16:30:30;;;;;;;44.40;8.40;;;;;;;;;;103747;1291;545660;-70
2024/03/31 16:34:08;;;;;;;48.00;9.20;;;;;;;;;;103544;1295;545881;-70
2024/03/31 16:37:42;;;;;;;49.70;8.80;;;;;;;;;;103958;1289;544629;-70
2024/03/31 16:41:24;;;;;;;51.70;9.30;;;;;;;;;;103789;1292;544858;-70
2024/03/31 16:45:14;;;;;;;;;;;;;;;;;;;;;
2024/03/31 16:48:40;;;;;;;42.70;8.90;;;;;;;;;;103706;1294;544909;-75
2024/03/31 16:52:15;;;;;;;47.20;8.80;;;;;;;;;;103722;1290;544771;-70
2024/03/31 16:55:53;;;;;;;40.10;8.40;;;;;;;;;;103675;1295;544797;-72
2024/03/31 16:59:27;;;;;;;49.10;8.10;;;;;;;;;;104035;1289;544756;-73
2024/03/31 17:03:08;;;;;;;51.70;9.10;;;;;;;;;;103952;1289;545562;-71
2024/03/31 17:06:46;;;;;;;45.50;9.20;;;;;;;;;;105873;1290;545543;-71
2024/03/31 17:10:19;;;;;;;44.20;8.70;;;;;;;;;;103911;1289;545018;-70
2024/03/31 17:14:00;;;;;;;43.90;8.50;;;;;;;;;;103846;1289;544832;-72
2024/03/31 17:17:38;;;;;;;44.70;9.50;;;;;;;;;;103821;1294;546100;-70
2024/03/31 17:21:15;;;;;;;40.90;9.20;;;;;;;;;;103842;1289;545437;-70
2024/03/31 17:24:54;;;;;;;54.90;12.80;;;;;;;;;;104547;1289;544787;-72
2024/03/31 17:28:30;;;;;;;55.40;13.50;;;;;;;;;;103791;1289;545601;-74
2024/03/31 17:32:10;;;;;;;48.20;13.30;;;;;;;;;;103771;1291;544839;-75
2024/03/31 17:35:41;;;;;;;44.90;12.30;;;;;;;;;;103801;1289;545851;-73
2024/03/31 17:39:26;;;;;;;52.00;11.90;;;;;;;;;;104401;1292;544793;-70
2024/03/31 17:43:00;;;;;;;50.10;11.10;;;;;;;;;;104417;1291;544958;-69
2024/03/31 17:46:39;;;;;;;51.30;12.20;;;;;;;;;;103834;1289;544940;-71
2024/03/31 17:50:18;;;;;;;52.40;11.70;;;;;;;;;;103964;1288;544920;-71
2024/03/31 17:53:53;;;;;;;54.40;11.90;;;;;;;;;;103777;1295;545030;-72
2024/03/31 17:57:30;;;;;;;46.70;11.20;;;;;;;;;;103675;1291;544594;-70
2024/03/31 18:01:12;;;;;;;47.30;10.50;;;;;;;;;;103687;1295;546084;-71
2024/03/31 18:04:45;;;;;;;45.80;10.70;;;;;;;;;;103808;1295;544857;-71
2024/03/31 18:08:19;;;;;;;47.60;10.40;;;;;;;;;;104060;1289;545429;-72
2024/03/31 18:12:00;;;;;;;45.60;9.10;;;;;;;;;;103659;1292;545037;-73
2024/03/31 18:15:34;;;;;;;48.40;8.60;;;;;;;;;;103716;1290;545460;-71
2024/03/31 18:19:19;;;;;;;43.40;8.50;;;;;;;;;;103969;1290;545425;-71
2024/03/31 18:22:53;;;;;;;48.10;8.90;;;;;;;;;;103703;1290;545087;-69
2024/03/31 18:26:33;;;;;;;41.10;9.10;;;;;;;;;;104466;1289;545017;-69
2024/03/31 18:30:11;;;;;;;46.40;9.00;;;;;;;;;;103786;1292;545315;-72
2024/03/31 18:33:42;;;;;;;38.70;8.10;;;;;;;;;;103885;1295;545127;-69
2024/03/31 18:37:24;;;;;;;45.40;9.90;;;;;;;;;;103790;1288;545565;-72
2024/03/31 18:41:03;;;;;;;52.30;11.40;;;;;;;;;;103680;1290;545366;-72
2024/03/31 18:44:35;;;;;;;48.60;10.80;;;;;;;;;;103780;1292;544847;-70
2024/03/31 18:48:15;;;;;;;45.60;10.40;;;;;;;;;;104575;1285;545142;-73
2024/03/31 18:51:53;;;;;;;53.10;9.60;;;;;;;;;;103888;1289;544786;-71
2024/03/31 18:55:31;;;;;;;55.60;11.80;;;;;;;;;;103861;1292;544954;-70
2024/03/31 18:59:09;;;;;;;62.30;13.30;;;;;;;;;;103674;1292;545036;-71
2024/03/31 19:02:46;;;;;;;52.50;11.70;;;;;;;;;;103720;1289;545695;-72
2024/03/31 19:06:26;;;;;;;58.40;10.50;;;;;;;;;;103650;1292;544962;-70
2024/03/31 19:10:03;;;;;;;57.10;11.10;;;;;;;;;;103830;1292;544961;-75
2024/03/31 19:13:40;;;;;;;52.80;10.40;;;;;;;;;;103524;1294;545651;-73
2024/03/31 19:17:15;;;;;;;53.50;10.10;;;;;;;;;;103810;1288;544830;-72
2024/03/31 19:20:59;;;;;;;49.80;9.70;;;;;;;;;;103867;1294;544780;-72
2024/03/31 19:24:30;;;;;;;50.30;9.00;;;;;;;;;;103951;1288;545907;-71
2024/03/31 19:28:09;;;;;;;46.50;9.30;;;;;;;;;;104001;1291;545414;-71
2024/03/31 19:31:42;;;;;;;47.60;9.40;;;;;;;;;;103825;1289;544951;-70
2024/03/31 19:35:24;;;;;;;53.40;9.70;;;;;;;;;;103685;1298;545182;-69
2024/03/31 19:38:56;;;;;;;48.80;9.40;;;;;;;;;;103870;1290;545024;-71
2024/03/31 19:42:34;;;;;;;45.80;9.30;;;;;;;;;;104061;1289;545063;-71
2024/03/31 19:46:16;;;;;;;44.60;8.20;;;;;;;;;;103738;1291;545040;-72
2024/03/31 19:49:53;;;;;;;44.20;9.70;;;;;;;;;;103655;1291;544834;-70
2024/03/31 19:53:36;;;;;;;44.90;9.10;;;;;;;;;;103826;1292;544788;-70
2024/03/31 19:57:08;;;;;;;50.50;9.70;;;;;;;;;;103766;1292;545131;-70
2024/03/31 20:00:45;;;;;;;46.50;9.90;;;;;;;;;;103794;1289;545650;-74
2024/03/31 20:04:23;;;;;;;52.50;11.40;;;;;;;;;;103624;1291;545623;-71
2024/03/31 20:07:59;;;;;;;60.10;10.90;;;;;;;;;;103906;1289;545398;-72
2024/03/31 20:11:38;;;;;;;55.30;10.70;;;;;;;;;;103678;1306;545067;-70
2024/03/31 20:15:18;;;;;;;47.90;9.30;;;;;;;;;;103791;1289;545436;-70
2024/03/31 20:18:55;;;;;;;45.50;9.20;;;;;;;;;;103538;1291;545042;-70
2024/03/31 20:22:30;;;;;;;45.90;9.70;;;;;;;;;;103875;1292;544961;-70
2024/03/31 20:26:11;;;;;;;56.20;9.90;;;;;;;;;;103778;1290;546505;-71
2024/03/31 20:29:46;;;;;;;39.70;8.10;;;;;;;;;;104001;1291;544737;-71
2024/03/31 20:33:46;;;;;;;46.30;10.00;;;;;;;;;;103710;1293;548403;-73
2024/03/31 20:37:04;;;;;;;47.70;9.50;;;;;;;;;;103885;1295;545376;-70
2024/03/31 20:40:38;;;;;;;49.70;9.70;;;;;;;;;;104060;1289;545391;-70
2024/03/31 20:44:20;;;;;;;50.30;9.60;;;;;;;;;;103761;1289;545023;-68
2024/03/31 20:48:02;;;;;;;45.40;10.30;;;;;;;;;;103799;1289;545230;-71